createdAt,value
2022-11-30T01:07:31.170Z,100455.94
2022-11-30T01:09:59.658Z,100460.00
2022-11-30T01:48:55.259Z,100469.94
2022-11-30T01:51:23.518Z,100476.03
2022-11-30T01:53:52.410Z,100473.13
2022-11-30T01:56:20.390Z,100474.34
2022-11-30T01:58:48.680Z,100481.84
2022-11-30T02:01:16.488Z,100486.28
2022-11-30T02:03:47.585Z,100481.03
2022-11-30T02:06:17.113Z,100486.59
2022-11-30T02:08:45.337Z,100491.03
2022-11-30T02:11:15.080Z,100496.22
2022-11-30T02:13:49.721Z,100494.38
2022-11-30T02:16:22.548Z,100493.06
2022-11-30T02:18:57.178Z,100493.09
2022-11-30T02:21:30.928Z,100493.31
2022-11-30T02:24:27.290Z,100502.50
2022-11-30T02:27:04.874Z,100490.03
2022-11-30T02:29:35.914Z,100488.97
2022-11-30T02:32:07.994Z,100487.75
2022-11-30T02:34:37.080Z,100492.78
2022-11-30T02:37:06.759Z,100481.28
2022-11-30T02:39:34.795Z,100479.94
2022-11-30T02:42:03.547Z,100482.34
2022-11-30T02:44:32.013Z,100485.47
2022-11-30T02:47:09.020Z,100487.28
2022-11-30T02:49:39.281Z,100489.19
2022-11-30T02:52:10.050Z,100488.03
2022-11-30T02:54:41.640Z,100493.03
2022-11-30T02:57:09.523Z,100489.25
2022-11-30T02:59:37.287Z,100497.72
2022-11-30T03:02:06.616Z,100493.47
2022-11-30T03:04:34.674Z,100501.91
2022-11-30T03:07:02.818Z,100507.28
2022-11-30T03:09:30.832Z,100515.69
2022-11-30T03:11:58.829Z,100503.38
2022-11-30T03:14:26.494Z,100504.28
2022-11-30T03:16:54.319Z,100494.16
2022-11-30T03:19:23.429Z,100495.84
2022-11-30T03:21:51.283Z,100495.59
2022-11-30T03:24:19.265Z,100490.28
2022-11-30T03:26:47.355Z,100491.22
2022-11-30T03:29:14.989Z,100499.16
2022-11-30T03:31:42.920Z,100498.34
2022-11-30T03:34:10.691Z,100500.66
2022-11-30T03:36:40.035Z,100505.78
2022-11-30T03:39:08.031Z,100504.63
2022-11-30T03:41:36.013Z,100511.44
2022-11-30T03:44:04.128Z,100506.28
2022-11-30T03:46:32.376Z,100512.16
2022-11-30T03:49:00.104Z,100517.81
2022-11-30T03:51:28.361Z,100513.31
2022-11-30T03:53:57.741Z,100509.31
2022-11-30T03:56:25.835Z,100511.59
2022-11-30T03:58:53.631Z,100517.97
2022-11-30T04:01:23.911Z,100513.47
2022-11-30T04:03:52.217Z,100519.50
2022-11-30T04:06:21.299Z,100515.50
2022-11-30T04:08:52.346Z,100521.56
2022-11-30T04:11:21.770Z,100518.03
2022-11-30T04:13:49.528Z,100511.38
2022-11-30T04:16:17.512Z,100522.09
2022-11-30T04:18:45.728Z,100517.53
2022-11-30T04:21:13.777Z,100517.63
2022-11-30T04:23:42.156Z,100520.06
2022-11-30T04:26:12.206Z,100523.25
2022-11-30T04:28:41.910Z,100524.59
2022-11-30T04:31:10.076Z,100526.13
2022-11-30T04:33:39.589Z,100522.44
2022-11-30T04:36:08.892Z,100525.44
2022-11-30T04:38:37.709Z,100528.53
2022-11-30T04:41:07.707Z,100515.56
2022-11-30T04:43:35.560Z,100519.06
2022-11-30T04:46:04.930Z,100516.56
2022-11-30T04:48:33.886Z,100520.41
2022-11-30T04:51:02.537Z,100518.50
2022-11-30T04:53:30.541Z,100514.22
2022-11-30T04:55:58.600Z,100518.41
2022-11-30T04:58:26.372Z,100519.00
2022-11-30T05:00:55.151Z,100521.59
2022-11-30T05:03:24.387Z,100526.44
2022-11-30T05:05:52.147Z,100528.00
2022-11-30T05:08:20.566Z,100534.88
2022-11-30T05:10:53.286Z,100530.53
2022-11-30T05:13:21.586Z,100533.47
2022-11-30T05:15:49.775Z,100528.88
2022-11-30T05:18:17.938Z,100531.13
2022-11-30T05:20:49.582Z,100535.09
2022-11-30T05:23:18.101Z,100529.59
2022-11-30T05:25:45.899Z,100535.28
2022-11-30T05:28:14.809Z,100536.94
2022-11-30T05:30:43.254Z,100539.88
2022-11-30T05:33:11.221Z,100532.84
2022-11-30T05:35:39.356Z,100537.47
2022-11-30T05:38:09.220Z,100542.06
2022-11-30T05:40:37.289Z,100537.75
2022-11-30T05:43:06.801Z,100546.81
2022-11-30T05:45:34.944Z,100545.25
2022-11-30T05:48:03.126Z,100546.69
2022-11-30T05:50:31.332Z,100541.63
2022-11-30T05:53:01.001Z,100550.59
2022-11-30T05:55:32.354Z,100545.53
2022-11-30T05:58:00.266Z,100551.38
2022-11-30T06:00:28.242Z,100543.34
2022-11-30T06:02:57.223Z,100546.06
2022-11-30T06:05:27.262Z,100537.69
2022-11-30T06:07:55.658Z,100534.34
2022-11-30T06:10:25.412Z,100530.75
2022-11-30T06:12:57.114Z,100520.00
2022-11-30T06:15:24.949Z,100517.88
2022-11-30T06:17:52.840Z,100513.56
2022-11-30T06:20:20.726Z,100516.31
2022-11-30T06:22:48.566Z,100523.34
2022-11-30T06:25:16.544Z,100520.19
2022-11-30T06:27:45.015Z,100517.75
2022-11-30T06:30:15.088Z,100524.13
2022-11-30T06:32:49.595Z,100543.13
2022-11-30T06:35:20.498Z,100545.19
2022-11-30T06:37:51.243Z,100546.19
2022-11-30T06:40:18.995Z,100541.81
2022-11-30T06:42:46.805Z,100551.22
2022-11-30T06:45:16.097Z,100556.88
2022-11-30T06:47:44.316Z,100557.41
2022-11-30T06:50:12.681Z,100554.81
2022-11-30T06:52:40.469Z,100551.38
2022-11-30T06:55:08.724Z,100554.41
2022-11-30T06:57:36.434Z,100560.53
2022-11-30T07:00:05.227Z,100561.16
2022-11-30T07:02:34.334Z,100564.66
2022-11-30T07:05:03.627Z,100566.66
2022-11-30T07:07:32.078Z,100569.41
2022-11-30T07:10:00.802Z,100564.25
2022-11-30T07:12:28.702Z,100571.25
2022-11-30T07:14:56.830Z,100559.94
2022-11-30T07:17:24.744Z,100565.56
2022-11-30T07:19:54.165Z,100569.06
2022-11-30T07:22:23.053Z,100562.88
2022-11-30T07:25:08.409Z,100566.94
2022-11-30T07:27:36.320Z,100566.09
2022-11-30T07:30:04.755Z,100569.00
2022-11-30T07:32:32.498Z,100573.28
2022-11-30T07:35:02.029Z,100570.56
2022-11-30T07:37:30.589Z,100575.75
2022-11-30T07:39:59.086Z,100578.34
2022-11-30T07:42:26.875Z,100566.94
2022-11-30T07:44:58.758Z,100572.84
2022-11-30T07:47:27.155Z,100572.56
2022-11-30T07:49:54.918Z,100575.63
2022-11-30T07:52:24.897Z,100579.97
2022-11-30T07:54:52.886Z,100579.19
2022-11-30T07:57:20.942Z,100575.06
2022-11-30T07:59:49.001Z,100574.53
2022-11-30T08:02:17.101Z,100574.78
2022-11-30T08:04:46.261Z,100586.03
2022-11-30T08:07:14.708Z,100580.56
2022-11-30T08:09:45.824Z,100580.09
2022-11-30T08:12:13.854Z,100576.81
2022-11-30T08:15:17.454Z,100581.06
2022-11-30T08:17:29.987Z,100580.94
2022-11-30T08:19:58.012Z,100590.47
2022-11-30T08:22:25.853Z,100586.44
2022-11-30T08:24:55.200Z,100589.31
2022-11-30T08:27:23.140Z,100583.59
2022-11-30T08:29:51.097Z,100585.50
2022-11-30T08:32:19.339Z,100587.72
2022-11-30T08:34:48.765Z,100585.28
2022-11-30T08:37:17.112Z,100585.78
2022-11-30T08:39:44.995Z,100579.53
2022-11-30T08:42:14.048Z,100581.16
2022-11-30T08:44:41.960Z,100582.03
2022-11-30T08:47:09.827Z,100587.50
2022-11-30T08:49:37.815Z,100598.97
2022-11-30T08:52:16.968Z,100598.53
2022-11-30T08:57:35.892Z,100604.19
2022-11-30T09:00:04.972Z,100615.19
2022-11-30T09:02:32.938Z,100608.34
2022-11-30T09:05:01.063Z,100609.19
2022-11-30T09:07:29.078Z,100611.88
2022-11-30T09:09:57.082Z,100615.25
2022-11-30T09:12:25.064Z,100625.06
2022-11-30T09:14:58.235Z,100615.97
2022-11-30T09:17:26.773Z,100627.09
2022-11-30T09:19:55.081Z,100626.88
2022-11-30T09:22:23.173Z,100626.28
2022-11-30T09:24:51.101Z,100630.88
2022-11-30T09:27:19.195Z,100635.75
2022-11-30T09:29:47.420Z,100637.00
2022-11-30T09:32:16.619Z,100640.09
2022-11-30T09:34:44.455Z,100639.25
2022-11-30T09:37:12.421Z,100638.91
2022-11-30T09:39:40.280Z,100642.13
2022-11-30T09:42:23.257Z,100639.84
2022-11-30T09:44:55.618Z,100642.44
2022-11-30T09:47:34.319Z,100643.59
2022-11-30T09:50:04.363Z,100635.75
2022-11-30T09:52:35.194Z,100645.69
2022-11-30T09:55:06.912Z,100640.66
2022-11-30T09:57:36.144Z,100648.50
2022-11-30T10:00:05.607Z,100643.66
2022-11-30T10:02:42.301Z,100638.44
2022-11-30T10:05:13.526Z,100638.50
2022-11-30T10:07:50.271Z,100641.44
2022-11-30T10:10:32.135Z,100641.28
2022-11-30T10:13:06.719Z,100644.94
2022-11-30T10:15:42.465Z,100638.06
2022-11-30T10:18:16.577Z,100639.09
2022-11-30T10:21:02.359Z,100641.84
2022-11-30T10:23:38.011Z,100642.63
2022-11-30T10:26:07.844Z,100641.09
2022-11-30T10:28:47.952Z,100633.78
2022-11-30T10:31:16.963Z,100648.13
2022-11-30T10:33:47.834Z,100642.09
2022-11-30T10:36:20.525Z,100642.91
2022-11-30T10:38:50.838Z,100640.94
2022-11-30T10:41:21.531Z,100636.66
2022-11-30T10:43:52.196Z,100628.97
2022-11-30T10:46:22.287Z,100628.88
2022-11-30T10:48:55.097Z,100624.69
2022-11-30T10:51:23.883Z,100630.88
2022-11-30T10:53:52.055Z,100624.47
2022-11-30T10:56:19.916Z,100626.25
2022-11-30T10:58:52.071Z,100627.38
2022-11-30T11:01:34.314Z,100630.22
2022-11-30T11:04:11.842Z,100619.59
2022-11-30T11:06:44.217Z,100618.69
2022-11-30T11:09:24.361Z,100619.91
2022-11-30T11:11:54.836Z,100611.91
2022-11-30T11:14:24.128Z,100612.34
2022-11-30T11:16:53.752Z,100615.16
2022-11-30T11:19:34.625Z,100616.88
2022-11-30T11:22:04.296Z,100617.66
2022-11-30T11:24:32.453Z,100617.97
2022-11-30T11:27:00.951Z,100619.69
2022-11-30T11:29:33.303Z,100618.75
2022-11-30T11:32:17.805Z,100620.44
2022-11-30T11:34:51.023Z,100613.66
2022-11-30T11:37:21.713Z,100605.28
2022-11-30T11:39:57.040Z,100607.69
2022-11-30T11:42:25.808Z,100596.94
2022-11-30T11:44:54.327Z,100595.94
2022-11-30T11:47:25.264Z,100594.19
2022-11-30T11:50:05.392Z,100599.03
2022-11-30T11:52:33.348Z,100600.09
2022-11-30T11:55:02.538Z,100596.16
2022-11-30T11:57:37.605Z,100597.53
2022-11-30T12:00:12.506Z,100597.97
2022-11-30T12:02:49.330Z,100596.06
2022-11-30T12:05:24.452Z,100603.38
2022-11-30T12:08:00.199Z,100605.63
2022-11-30T12:13:19.493Z,100597.00
2022-11-30T12:15:57.885Z,100606.69
2022-11-30T12:18:28.432Z,100600.41
2022-11-30T12:21:00.667Z,100608.84
2022-11-30T12:23:35.859Z,100609.13
2022-11-30T12:26:09.584Z,100609.91
2022-11-30T12:28:42.177Z,100604.72
2022-11-30T12:31:13.194Z,100616.19
2022-11-30T12:33:48.546Z,100604.91
2022-11-30T12:36:20.901Z,100606.94
2022-11-30T12:38:50.332Z,100604.34
2022-11-30T12:41:31.835Z,100599.78
2022-11-30T12:44:06.675Z,100600.50
2022-11-30T12:46:41.097Z,100591.63
2022-11-30T12:49:22.996Z,100602.28
2022-11-30T12:51:56.622Z,100598.22
2022-11-30T12:54:29.014Z,100599.03
2022-11-30T12:56:58.972Z,100602.53
2022-11-30T12:59:30.695Z,100597.06
2022-11-30T13:02:09.861Z,100605.13
2022-11-30T13:04:39.722Z,100600.41
2022-11-30T13:07:13.920Z,100599.97
2022-11-30T13:09:46.621Z,100603.72
2022-11-30T13:12:17.632Z,100606.88
2022-11-30T13:14:46.266Z,100604.63
2022-11-30T13:17:17.276Z,100605.78
2022-11-30T13:19:55.526Z,100604.75
2022-11-30T13:22:31.941Z,100605.44
2022-11-30T13:25:03.647Z,100601.22
2022-11-30T13:27:33.778Z,100599.31
2022-11-30T13:30:14.986Z,100609.75
2022-11-30T13:32:59.043Z,100608.56
2022-11-30T13:35:41.385Z,100605.81
2022-11-30T13:41:07.424Z,100609.50
2022-11-30T13:43:37.140Z,100609.78
2022-11-30T13:46:14.422Z,100607.78
2022-11-30T13:48:43.283Z,100608.00
2022-11-30T13:51:11.813Z,100608.69
2022-11-30T13:53:42.094Z,100608.56
2022-11-30T13:56:28.911Z,100603.25
2022-11-30T13:59:15.602Z,100614.38
2022-11-30T14:01:43.822Z,100611.47
2022-11-30T14:04:40.012Z,100612.44
2022-11-30T14:07:23.205Z,100612.94
2022-11-30T14:10:00.227Z,100613.72
2022-11-30T14:12:40.584Z,100604.91
2022-11-30T14:15:23.620Z,100610.06
2022-11-30T14:17:55.478Z,100614.88
2022-11-30T14:20:26.225Z,100622.38
2022-11-30T14:22:54.892Z,100622.44
2022-11-30T14:25:24.527Z,100630.16
2022-11-30T14:27:56.753Z,100628.31
2022-11-30T14:30:25.347Z,100620.25
2022-11-30T14:32:56.955Z,100623.34
2022-11-30T14:35:25.204Z,100630.31
2022-11-30T14:37:54.295Z,100625.91
2022-11-30T14:40:23.481Z,100618.38
2022-11-30T14:42:53.681Z,100624.63
2022-11-30T14:45:23.466Z,100623.53
2022-11-30T14:47:52.312Z,100633.22
2022-11-30T14:50:23.170Z,100625.59
2022-11-30T14:52:56.950Z,100624.28
2022-11-30T14:55:29.856Z,100620.69
2022-11-30T14:58:07.620Z,100622.66
2022-11-30T15:00:39.879Z,100625.19
2022-11-30T15:03:17.934Z,100625.53
2022-11-30T15:05:48.514Z,100629.38
2022-11-30T15:08:18.210Z,100629.78
2022-11-30T15:10:46.213Z,100628.50
2022-11-30T15:13:17.050Z,100625.19
2022-11-30T15:15:51.145Z,100625.53
2022-11-30T15:18:20.638Z,100629.56
2022-11-30T15:20:51.341Z,100627.13
2022-11-30T15:23:19.556Z,100629.97
2022-11-30T15:25:48.826Z,100639.75
2022-11-30T15:28:19.862Z,100633.50
2022-11-30T15:30:48.789Z,100630.91
2022-11-30T15:33:20.463Z,100626.94
2022-11-30T15:38:37.485Z,100634.00
2022-11-30T15:41:07.183Z,100631.91
2022-11-30T15:43:38.667Z,100634.06
2022-11-30T15:46:07.078Z,100635.59
2022-11-30T15:48:36.549Z,100629.81
2022-11-30T15:51:04.827Z,100637.91
2022-11-30T15:53:34.739Z,100634.78
2022-11-30T15:56:07.698Z,100644.22
2022-11-30T15:58:40.020Z,100647.94
2022-11-30T16:01:10.203Z,100642.47
2022-11-30T16:04:00.218Z,100646.88
2022-11-30T16:06:29.233Z,100641.91
2022-11-30T16:08:58.877Z,100644.75
2022-11-30T16:11:26.998Z,100647.94
2022-11-30T16:13:56.516Z,100651.06
2022-11-30T16:16:28.501Z,100653.19
2022-11-30T16:18:56.788Z,100647.31
2022-11-30T16:21:24.567Z,100649.16
2022-11-30T16:23:52.514Z,100655.13
2022-11-30T16:26:49.373Z,100652.59
2022-11-30T16:29:10.269Z,100650.09
2022-11-30T16:31:39.031Z,100652.34
2022-11-30T16:34:08.827Z,100651.59
2022-11-30T16:36:37.966Z,100651.44
2022-11-30T16:39:05.951Z,100658.16
2022-11-30T16:41:36.359Z,100663.97
2022-11-30T16:44:10.100Z,100660.53
2022-11-30T16:46:39.855Z,100668.81
2022-11-30T16:49:07.990Z,100671.63
2022-11-30T16:51:36.307Z,100665.44
2022-11-30T16:54:06.984Z,100671.59
2022-11-30T16:56:35.378Z,100673.38
2022-11-30T16:59:03.480Z,100676.75
2022-11-30T17:01:36.111Z,100685.91
2022-11-30T17:04:12.416Z,100687.34
2022-11-30T17:06:40.218Z,100683.91
2022-11-30T17:09:10.790Z,100682.25
2022-11-30T17:11:39.111Z,100695.06
2022-11-30T17:14:06.833Z,100689.25
2022-11-30T17:16:35.022Z,100694.53
2022-11-30T17:19:02.983Z,100696.97
2022-11-30T17:21:35.393Z,100694.28
2022-11-30T17:24:03.621Z,100702.47
2022-11-30T17:26:31.534Z,100700.47
2022-11-30T17:28:59.322Z,100702.84
2022-11-30T17:31:27.133Z,100698.88
2022-11-30T17:33:54.971Z,100705.97
2022-11-30T17:36:23.386Z,100702.88
2022-11-30T17:38:52.534Z,100701.59
2022-11-30T17:41:20.588Z,100702.75
2022-11-30T17:43:48.612Z,100707.03
2022-11-30T17:46:18.522Z,100707.50
2022-11-30T17:48:46.555Z,100710.44
2022-11-30T17:51:14.851Z,100713.94
2022-11-30T17:53:44.279Z,100709.25
2022-11-30T17:56:14.264Z,100704.13
2022-11-30T17:58:44.571Z,100707.97
2022-11-30T18:01:16.753Z,100710.22
2022-11-30T18:03:45.049Z,100712.91
2022-11-30T18:06:15.324Z,100709.38
2022-11-30T18:08:44.870Z,100711.34
2022-11-30T18:11:16.076Z,100712.16
2022-11-30T18:13:44.209Z,100715.28
2022-11-30T18:18:56.599Z,100715.47
2022-11-30T18:21:28.512Z,100723.25
2022-11-30T18:23:59.229Z,100722.16
2022-11-30T18:26:28.910Z,100721.47
2022-11-30T18:28:59.340Z,100734.00
2022-11-30T18:31:27.899Z,100734.22
2022-11-30T18:33:58.749Z,100733.63
2022-11-30T18:36:27.038Z,100727.38
2022-11-30T18:38:55.521Z,100745.81
2022-11-30T18:41:25.924Z,100734.69
2022-11-30T18:43:55.735Z,100744.53
2022-11-30T18:46:24.614Z,100739.56
2022-11-30T18:48:54.561Z,100739.88
2022-11-30T18:51:24.117Z,100742.16
2022-11-30T18:53:58.858Z,100745.97
2022-11-30T18:56:28.344Z,100751.69
2022-11-30T18:58:58.361Z,100738.59
2022-11-30T19:04:31.127Z,100743.63
2022-11-30T19:06:59.736Z,100739.59
2022-11-30T19:09:27.612Z,100748.28
2022-11-30T19:11:57.973Z,100742.44
2022-11-30T19:14:27.224Z,100747.00
2022-11-30T19:16:55.178Z,100749.50
2022-11-30T19:19:23.040Z,100755.28
2022-11-30T19:21:50.980Z,100759.25
2022-11-30T19:24:19.172Z,100758.63
2022-11-30T19:26:46.888Z,100758.28
2022-11-30T19:29:15.132Z,100763.31
2022-11-30T19:31:44.157Z,100764.06
2022-11-30T19:34:13.425Z,100767.34
2022-11-30T19:36:41.751Z,100772.41
2022-11-30T19:39:10.528Z,100776.16
2022-11-30T19:41:38.199Z,100770.59
2022-11-30T19:44:06.230Z,100766.34
2022-11-30T19:46:34.744Z,100761.44
2022-11-30T19:49:04.206Z,100770.41
2022-11-30T19:51:32.302Z,100770.53
2022-11-30T19:54:01.876Z,100767.94
2022-11-30T19:56:31.329Z,100768.31
2022-11-30T19:59:04.616Z,100770.31
2022-11-30T20:01:34.146Z,100776.75
2022-11-30T20:04:02.448Z,100781.97
2022-11-30T20:06:32.641Z,100776.34
2022-11-30T20:09:00.725Z,100773.88
2022-11-30T20:11:29.038Z,100773.22
2022-11-30T20:13:56.872Z,100780.53
2022-11-30T20:16:25.043Z,100780.91
2022-11-30T20:18:53.802Z,100780.28
2022-11-30T20:21:23.006Z,100780.16
2022-11-30T20:23:52.755Z,100789.75
2022-11-30T20:26:21.677Z,100784.72
2022-11-30T20:28:50.183Z,100783.28
2022-11-30T20:31:19.796Z,100780.91
2022-11-30T20:33:48.240Z,100785.59
2022-11-30T20:36:16.930Z,100785.56
2022-11-30T20:38:45.093Z,100788.63
2022-11-30T20:41:15.428Z,100792.41
2022-11-30T20:43:43.509Z,100782.13
2022-11-30T20:46:14.881Z,100783.25
2022-11-30T20:48:43.015Z,100782.66
2022-11-30T20:51:30.068Z,100783.19
2022-11-30T20:53:59.733Z,100788.03
2022-11-30T20:56:29.069Z,100787.47
2022-11-30T20:58:57.295Z,100790.53
2022-11-30T21:01:25.523Z,100796.41
2022-11-30T21:03:53.548Z,100792.41
2022-11-30T21:06:21.628Z,100792.22
2022-11-30T21:08:49.382Z,100789.59
2022-11-30T21:11:18.603Z,100788.13
2022-11-30T21:13:48.850Z,100793.81
2022-11-30T21:16:21.171Z,100797.81
2022-11-30T21:18:52.337Z,100797.44
2022-11-30T21:21:21.133Z,100799.75
2022-11-30T21:23:49.470Z,100792.91
2022-11-30T21:26:18.921Z,100792.06
2022-11-30T21:28:49.144Z,100800.75
2022-11-30T21:31:17.560Z,100800.88
2022-11-30T21:33:52.442Z,100803.47
2022-11-30T21:36:21.822Z,100796.13
2022-11-30T21:38:49.641Z,100801.31
2022-11-30T21:41:18.050Z,100799.84
2022-11-30T21:43:45.789Z,100801.28
2022-11-30T22:40:14.049Z,100810.09
2022-11-30T23:11:56.132Z,100806.50
2022-11-30T23:14:24.623Z,100804.47
2022-11-30T23:56:38.050Z,100779.81
2022-11-30T23:59:07.819Z,100783.16
